Time;durP1;ratioP1;P1;durP2;ratioP2;P2;SDS_P1;SDS_P2;PMS_P1;PMS_P2;Temp;Humidity;BMP_temperature;BMP_pressure;BME280_temperature;BME280_humidity;BME280_pressure;Samples;Min_cycle;Max_cycle;Signal;HPM_P1;HPM_P2
2023/02/28 00:00:32;;;;;;;3.40;3.10;;;0.90;61.10;;;;;;5115695;28;20245;-83
2023/02/28 00:02:57;;;;;;;3.97;3.10;;;0.80;61.40;;;;;;5099194;28;20187;-84
2023/02/28 00:05:25;;;;;;;3.57;2.87;;;0.90;61.60;;;;;;5097693;28;20198;-83
2023/02/28 00:07:51;;;;;;;5.03;3.20;;;0.90;61.90;;;;;;5097718;28;20179;-81
2023/02/28 00:10:20;;;;;;;4.03;3.40;;;0.90;61.70;;;;;;5096398;28;20195;-82
2023/02/28 00:12:47;;;;;;;4.70;3.50;;;0.80;61.30;;;;;;5096367;28;20167;-83
2023/02/28 00:15:13;;;;;;;4.50;3.30;;;0.80;61.40;;;;;;5095631;28;20182;-83
2023/02/28 00:17:39;;;;;;;3.57;3.27;;;0.90;61.00;;;;;;5095735;28;20182;-83
2023/02/28 00:20:11;;;;;;;3.37;3.10;;;0.90;61.60;;;;;;5095157;28;20252;-82
2023/02/28 00:22:42;;;;;;;3.60;3.30;;;0.90;61.40;;;;;;5075064;28;20188;-83
2023/02/28 00:25:09;;;;;;;3.47;3.17;;;0.90;61.50;;;;;;5074193;28;20214;-80
2023/02/28 00:27:36;;;;;;;3.43;3.10;;;0.90;61.60;;;;;;5074661;28;20207;-82
2023/02/28 00:30:03;;;;;;;3.17;2.97;;;0.90;61.90;;;;;;5074056;28;20229;-83
2023/02/28 00:32:29;;;;;;;3.47;3.17;;;0.90;61.80;;;;;;5074098;28;20183;-81
2023/02/28 00:34:55;;;;;;;3.67;3.37;;;0.80;61.60;;;;;;5075731;28;20552;-85
2023/02/28 00:37:21;;;;;;;4.07;3.10;;;0.80;61.70;;;;;;5093351;28;20191;-84
2023/02/28 00:39:46;;;;;;;3.57;3.07;;;0.70;62.70;;;;;;5094654;28;20285;-84
2023/02/28 00:42:12;;;;;;;4.70;3.07;;;0.60;62.70;;;;;;5094541;28;20175;-82
2023/02/28 00:44:38;;;;;;;3.43;3.13;;;0.60;63.10;;;;;;5093519;28;20854;-81
2023/02/28 00:47:03;;;;;;;3.30;3.00;;;0.60;63.10;;;;;;5094640;28;20167;-83
2023/02/28 00:49:29;;;;;;;5.23;3.33;;;0.60;62.90;;;;;;5094999;28;20774;-83
2023/02/28 00:51:55;;;;;;;3.30;3.00;;;0.50;63.00;;;;;;5095476;28;20283;-83
2023/02/28 00:54:21;;;;;;;3.60;3.30;;;0.60;63.30;;;;;;5096373;28;20171;-82
2023/02/28 00:56:48;;;;;;;3.63;3.10;;;0.60;63.20;;;;;;5095504;28;20179;-82
2023/02/28 00:59:15;;;;;;;4.23;3.83;;;0.60;63.30;;;;;;5096742;28;20545;-82
2023/02/28 01:01:42;;;;;;;3.47;3.10;;;0.50;63.50;;;;;;5096077;28;20343;-83
2023/02/28 01:04:08;;;;;;;4.60;3.30;;;0.40;63.70;;;;;;5095912;28;20216;-82
2023/02/28 01:06:33;;;;;;;3.73;3.33;;;0.50;63.80;;;;;;5095218;28;20315;-83
2023/02/28 01:09:00;;;;;;;3.53;3.20;;;0.50;63.70;;;;;;5096442;28;20240;-80
2023/02/28 01:11:25;;;;;;;3.30;3.00;;;0.50;63.70;;;;;;5096215;28;20195;-84
2023/02/28 01:13:51;;;;;;;3.40;3.10;;;0.50;63.70;;;;;;5096760;28;20175;-82
2023/02/28 01:16:17;;;;;;;3.80;3.47;;;0.50;63.80;;;;;;5099682;28;20231;-84
2023/02/28 01:18:43;;;;;;;5.37;3.43;;;0.50;63.50;;;;;;5096339;28;20193;-82
2023/02/28 01:21:12;;;;;;;3.30;2.90;;;0.50;63.60;;;;;;5099849;28;20220;-83
2023/02/28 01:23:39;;;;;;;3.90;3.53;;;0.40;63.70;;;;;;5095860;28;20171;-82
2023/02/28 01:26:10;;;;;;;3.43;3.13;;;0.40;64.20;;;;;;5094812;28;20206;-83
2023/02/28 01:28:36;;;;;;;4.10;3.40;;;0.40;64.80;;;;;;5093663;28;20202;-83
2023/02/28 01:31:02;;;;;;;4.47;3.07;;;0.30;65.00;;;;;;5095777;28;20222;-83
2023/02/28 01:33:28;;;;;;;4.67;3.37;;;0.40;64.60;;;;;;5094518;28;20175;-81
2023/02/28 01:36:06;;;;;;;3.10;2.77;;;0.20;65.20;;;;;;5094532;28;20704;-83
2023/02/28 01:38:32;;;;;;;3.17;2.87;;;0.30;65.20;;;;;;5093968;28;20190;-83
2023/02/28 01:40:58;;;;;;;3.67;3.37;;;0.30;65.70;;;;;;5095807;28;20225;-83
2023/02/28 01:43:45;;;;;;;3.47;3.17;;;0.30;64.90;;;;;;5096259;28;20313;-83
2023/02/28 01:46:12;;;;;;;5.63;3.30;;;0.30;65.30;;;;;;5084495;28;20290;-81
2023/02/28 01:48:46;;;;;;;3.87;3.30;;;0.30;65.20;;;;;;5095570;28;20215;-81
2023/02/28 01:51:18;;;;;;;3.97;3.53;;;0.30;64.70;;;;;;5095727;28;20201;-82
2023/02/28 01:53:58;;;;;;;4.40;3.17;;;0.30;65.00;;;;;;5095772;28;20205;-83
2023/02/28 01:56:31;;;;;;;4.80;3.77;;;0.30;65.00;;;;;;5095478;28;20159;-83
2023/02/28 01:58:57;;;;;;;3.80;3.47;;;0.20;65.60;;;;;;5096337;28;20641;-83
2023/02/28 02:01:26;;;;;;;3.97;3.37;;;0.10;66.00;;;;;;5096267;28;20241;-83
2023/02/28 02:03:57;;;;;;;3.73;3.43;;;0.00;66.50;;;;;;5095986;28;20209;-83
2023/02/28 02:06:42;;;;;;;5.77;3.70;;;0.10;66.50;;;;;;5095212;28;20195;-83
2023/02/28 02:09:07;;;;;;;4.33;3.50;;;0.20;66.50;;;;;;5101912;28;20239;-82
2023/02/28 02:11:35;;;;;;;4.87;3.57;;;0.10;66.80;;;;;;5100649;28;20199;-83
2023/02/28 02:14:32;;;;;;;4.27;3.30;;;0.10;66.90;;;;;;5100682;28;20175;-83
2023/02/28 02:17:09;;;;;;;3.60;3.30;;;0.10;66.80;;;;;;5083807;28;20838;-82
2023/02/28 02:19:55;;;;;;;6.77;3.43;;;0.00;67.10;;;;;;5100927;28;20177;-82
2023/02/28 02:22:23;;;;;;;4.13;3.57;;;0.00;66.90;;;;;;5099872;28;20209;-83
2023/02/28 02:25:00;;;;;;;3.53;3.23;;;0.10;67.20;;;;;;5100237;28;20214;-81
2023/02/28 02:27:32;;;;;;;4.20;3.63;;;0.00;66.90;;;;;;5100606;28;20182;-81
2023/02/28 02:30:35;;;;;;;4.47;3.50;;;0.00;67.30;;;;;;5100807;28;20194;-83
2023/02/28 02:33:21;;;;;;;4.63;3.60;;;0.00;67.20;;;;;;5100676;28;20663;-83
2023/02/28 02:35:59;;;;;;;4.40;3.50;;;0.00;67.40;;;;;;5099596;28;20206;-83
2023/02/28 02:38:48;;;;;;;4.23;3.50;;;0.10;67.60;;;;;;5101782;28;20185;-82
2023/02/28 02:41:33;;;;;;;5.50;3.80;;;0.10;67.10;;;;;;5080405;28;20203;-82
2023/02/28 02:44:06;;;;;;;3.77;3.47;;;0.10;67.50;;;;;;5080943;28;20210;-82
2023/02/28 02:46:38;;;;;;;4.03;3.20;;;0.00;67.30;;;;;;5094988;28;20221;-83
2023/02/28 02:49:09;;;;;;;4.77;3.67;;;0.00;67.20;;;;;;5102079;28;20171;-82
2023/02/28 02:51:37;;;;;;;4.10;3.63;;;0.00;67.60;;;;;;5099752;28;20236;-83
2023/02/28 02:54:18;;;;;;;5.27;3.30;;;0.00;67.80;;;;;;5101544;28;20175;-84
2023/02/28 02:56:47;;;;;;;3.90;3.50;;;-0.10;68.20;;;;;;5099072;28;20509;-82
2023/02/28 02:59:20;;;;;;;3.90;3.50;;;0.00;68.40;;;;;;5100726;28;20227;-82
2023/02/28 03:01:49;;;;;;;3.63;3.30;;;0.00;68.10;;;;;;5101263;28;20202;-83
2023/02/28 03:04:20;;;;;;;4.30;3.90;;;-0.10;68.50;;;;;;5100682;28;20174;-83
2023/02/28 03:06:46;;;;;;;4.30;3.90;;;-0.10;68.30;;;;;;5099122;28;20202;-82
2023/02/28 03:09:11;;;;;;;4.80;3.97;;;-0.10;68.70;;;;;;5100060;28;20182;-83
2023/02/28 03:11:39;;;;;;;4.60;3.20;;;-0.10;68.70;;;;;;5097401;28;20221;-83
2023/02/28 03:14:29;;;;;;;4.17;3.77;;;-0.10;68.90;;;;;;5098453;28;20186;-83
2023/02/28 03:17:15;;;;;;;4.00;3.60;;;-0.10;68.70;;;;;;5100226;28;20197;-82
2023/02/28 03:19:55;;;;;;;5.43;3.83;;;0.00;68.70;;;;;;5097194;28;20544;-83
2023/02/28 03:22:36;;;;;;;5.40;3.67;;;0.00;69.00;;;;;;5079243;28;20167;-83
2023/02/28 03:25:08;;;;;;;4.67;4.00;;;0.10;68.30;;;;;;5075960;28;20196;-83
2023/02/28 03:27:52;;;;;;;4.30;3.90;;;0.00;68.30;;;;;;5076963;28;20270;-83
2023/02/28 03:30:42;;;;;;;3.83;3.53;;;0.00;68.70;;;;;;5095938;28;20209;-82
2023/02/28 03:33:46;;;;;;;4.33;3.70;;;0.00;68.80;;;;;;5097260;28;20226;-82
2023/02/28 03:36:19;;;;;;;8.13;4.07;;;-0.10;69.00;;;;;;5095650;28;20187;-82
2023/02/28 03:39:02;;;;;;;3.67;3.37;;;0.00;69.10;;;;;;5097999;28;20182;-83
2023/02/28 03:41:41;;;;;;;5.27;3.87;;;0.00;68.80;;;;;;5098784;28;20805;-83
2023/02/28 03:44:15;;;;;;;4.43;4.03;;;0.10;68.70;;;;;;5098642;28;20161;-84
2023/02/28 03:47:06;;;;;;;5.23;4.47;;;0.10;68.90;;;;;;5097889;28;20182;-83
2023/02/28 03:49:43;;;;;;;5.90;3.90;;;0.10;68.90;;;;;;5098788;28;20233;-83
2023/02/28 03:52:09;;;;;;;4.87;3.67;;;0.00;68.90;;;;;;5098267;28;20549;-80
2023/02/28 03:54:42;;;;;;;3.90;3.60;;;0.00;69.30;;;;;;5097653;28;20206;-83
2023/02/28 03:57:25;;;;;;;4.17;3.77;;;0.10;69.20;;;;;;5098371;28;20178;-82
2023/02/28 03:59:59;;;;;;;4.90;3.90;;;0.10;68.90;;;;;;5098690;28;20183;-82
2023/02/28 04:02:25;;;;;;;4.57;4.17;;;0.20;68.90;;;;;;5098229;28;20190;-83
2023/02/28 04:04:50;;;;;;;4.53;4.13;;;0.20;68.10;;;;;;5097576;28;20583;-81
2023/02/28 04:07:17;;;;;;;5.07;4.23;;;0.00;68.90;;;;;;5096268;28;20221;-84
2023/02/28 04:09:43;;;;;;;5.23;4.30;;;0.10;69.00;;;;;;5096969;28;20198;-83
2023/02/28 04:12:09;;;;;;;5.17;4.57;;;0.10;69.00;;;;;;5097615;28;20677;-82
2023/02/28 04:14:34;;;;;;;4.47;4.07;;;0.00;69.00;;;;;;5096511;28;20179;-84
2023/02/28 04:17:00;;;;;;;4.43;3.70;;;0.00;69.30;;;;;;5096887;28;20167;-83
2023/02/28 04:19:26;;;;;;;4.80;3.93;;;-0.10;70.00;;;;;;5098156;28;20179;-84
2023/02/28 04:21:53;;;;;;;6.47;4.20;;;-0.10;70.00;;;;;;5099666;28;20223;-84
2023/02/28 04:24:25;;;;;;;6.27;4.33;;;-0.10;69.90;;;;;;5097463;28;20175;-84
2023/02/28 04:26:52;;;;;;;5.00;4.43;;;-0.10;70.10;;;;;;5097446;28;20218;-82
2023/02/28 04:29:24;;;;;;;4.73;4.33;;;-0.10;70.00;;;;;;5082537;28;20195;-82
2023/02/28 04:31:50;;;;;;;4.40;3.87;;;-0.10;69.80;;;;;;5075639;28;20638;-83
2023/02/28 04:34:16;;;;;;;4.70;3.83;;;-0.10;69.90;;;;;;5075482;28;20282;-83
2023/02/28 04:36:42;;;;;;;4.87;4.03;;;-0.10;70.20;;;;;;5098173;28;20187;-82
2023/02/28 04:39:09;;;;;;;4.93;4.43;;;-0.20;69.90;;;;;;5101412;28;20314;-83
2023/02/28 04:41:35;;;;;;;4.63;3.80;;;-0.10;70.00;;;;;;5097724;28;20233;-81
2023/02/28 04:44:00;;;;;;;5.07;4.57;;;-0.10;70.00;;;;;;5096532;28;20266;-82
2023/02/28 04:46:26;;;;;;;5.00;4.37;;;-0.10;70.10;;;;;;5095992;28;20209;-83
2023/02/28 04:48:51;;;;;;;5.10;4.43;;;0.00;69.60;;;;;;5090194;28;20182;-82
2023/02/28 04:51:19;;;;;;;4.57;4.17;;;0.00;69.40;;;;;;5096025;28;20277;-82
2023/02/28 04:53:45;;;;;;;5.00;4.00;;;0.00;69.40;;;;;;5096161;28;20175;-83
2023/02/28 04:56:13;;;;;;;4.93;4.07;;;0.00;69.30;;;;;;5096144;28;20175;-83
2023/02/28 04:58:39;;;;;;;4.33;3.93;;;0.00;69.80;;;;;;5096365;28;20186;-83
2023/02/28 05:01:15;;;;;;;5.13;4.17;;;0.00;69.20;;;;;;5096083;28;20227;-81
2023/02/28 05:03:40;;;;;;;6.27;4.63;;;0.00;69.50;;;;;;5093472;28;20211;-82
2023/02/28 05:06:10;;;;;;;5.37;4.73;;;0.00;69.10;;;;;;5092312;28;20210;-84
2023/02/28 05:08:35;;;;;;;10.37;6.87;;;0.00;69.40;;;;;;5094492;28;20209;-82
2023/02/28 05:11:02;;;;;;;7.73;4.80;;;0.00;69.40;;;;;;5094714;28;20202;-83
2023/02/28 05:13:28;;;;;;;6.73;6.13;;;0.00;69.20;;;;;;5094470;28;20179;-82
2023/02/28 05:15:54;;;;;;;5.40;4.90;;;0.00;69.10;;;;;;5094548;28;20186;-82
2023/02/28 05:18:20;;;;;;;6.90;5.20;;;0.00;69.50;;;;;;5093421;28;20186;-82
2023/02/28 05:20:46;;;;;;;7.27;5.10;;;-0.10;69.60;;;;;;5093860;28;20283;-81
2023/02/28 05:23:12;;;;;;;5.97;5.10;;;-0.10;69.50;;;;;;5094253;28;20191;-83
2023/02/28 05:25:39;;;;;;;5.80;5.20;;;-0.10;69.60;;;;;;5094404;28;20423;-83
2023/02/28 05:28:05;;;;;;;4.73;4.33;;;0.00;69.40;;;;;;5094750;28;20536;-82
2023/02/28 05:30:31;;;;;;;5.17;4.67;;;0.00;69.30;;;;;;5093742;28;20204;-83
2023/02/28 05:32:57;;;;;;;5.73;5.10;;;-0.10;69.50;;;;;;5094606;28;20175;-81
2023/02/28 05:35:24;;;;;;;5.33;4.83;;;-0.10;69.90;;;;;;5093698;28;20269;-82
2023/02/28 05:37:49;;;;;;;5.07;4.57;;;-0.10;69.90;;;;;;5095699;28;20522;-82
2023/02/28 05:40:16;;;;;;;5.57;5.07;;;-0.10;69.80;;;;;;5095814;28;20209;-81
2023/02/28 05:42:42;;;;;;;6.67;5.20;;;-0.10;70.00;;;;;;5096035;28;20187;-82
2023/02/28 05:45:08;;;;;;;4.70;4.30;;;-0.10;70.10;;;;;;5090601;28;20206;-82
2023/02/28 05:47:34;;;;;;;6.27;4.73;;;-0.10;70.10;;;;;;5096885;28;20741;-82
2023/02/28 05:50:00;;;;;;;6.33;5.70;;;-0.10;70.20;;;;;;5096757;28;20206;-82
2023/02/28 05:52:27;;;;;;;7.53;6.80;;;-0.10;70.10;;;;;;5096862;28;20552;-83
2023/02/28 05:54:52;;;;;;;12.30;9.43;;;-0.20;70.40;;;;;;5095816;28;20197;-82
2023/02/28 05:57:18;;;;;;;9.30;7.57;;;-0.20;70.30;;;;;;5095440;28;20190;-82
2023/02/28 05:59:44;;;;;;;20.97;15.73;;;-0.20;70.60;;;;;;5095146;28;20198;-81
2023/02/28 06:02:14;;;;;;;17.10;13.20;;;-0.20;70.70;;;;;;5095124;28;20199;-81
2023/02/28 06:04:41;;;;;;;10.70;9.53;;;-0.20;70.90;;;;;;5093380;28;20247;-83
2023/02/28 06:07:07;;;;;;;7.67;6.87;;;-0.30;71.10;;;;;;5094222;28;20222;-82
2023/02/28 06:09:33;;;;;;;5.87;5.27;;;-0.20;71.10;;;;;;5090282;28;20186;-83
2023/02/28 06:12:02;;;;;;;6.53;5.83;;;-0.20;70.50;;;;;;5095272;28;20668;-81
2023/02/28 06:14:28;;;;;;;9.00;7.03;;;-0.20;70.80;;;;;;5090671;28;20187;-84
2023/02/28 06:16:54;;;;;;;6.10;5.47;;;-0.20;70.70;;;;;;5090419;28;20293;-82
2023/02/28 06:19:20;;;;;;;7.50;5.87;;;-0.20;70.60;;;;;;5092983;28;20186;-81
2023/02/28 06:21:50;;;;;;;6.67;5.40;;;-0.10;70.70;;;;;;5095335;28;20242;-80
2023/02/28 06:24:16;;;;;;;8.93;6.57;;;-0.10;70.50;;;;;;5098458;28;20193;-82
2023/02/28 06:26:41;;;;;;;6.80;6.10;;;-0.10;70.70;;;;;;5093184;28;20676;-82
2023/02/28 06:29:07;;;;;;;9.17;6.60;;;0.00;70.50;;;;;;5097202;28;20657;-80
2023/02/28 06:31:32;;;;;;;7.10;6.40;;;0.00;70.50;;;;;;5096274;28;20199;-82
2023/02/28 06:33:58;;;;;;;6.13;5.53;;;0.00;70.40;;;;;;5066109;28;20195;-80
2023/02/28 06:36:24;;;;;;;7.73;6.80;;;0.10;69.70;;;;;;5083529;28;20251;-84
2023/02/28 06:38:54;;;;;;;7.00;5.60;;;0.10;70.10;;;;;;5072083;28;20191;-81
2023/02/28 06:41:29;;;;;;;6.73;5.33;;;0.10;70.00;;;;;;5074500;28;20225;-81
2023/02/28 06:43:55;;;;;;;7.47;5.70;;;0.10;69.70;;;;;;5074220;28;20209;-80
2023/02/28 06:46:21;;;;;;;6.07;5.47;;;0.10;69.90;;;;;;5079199;28;20234;-81
2023/02/28 06:48:46;;;;;;;7.60;6.23;;;0.20;69.40;;;;;;5077137;28;20187;-82
2023/02/28 06:51:18;;;;;;;5.70;5.20;;;0.10;69.50;;;;;;5078171;28;20210;-81
2023/02/28 06:53:43;;;;;;;6.40;5.80;;;0.10;69.50;;;;;;5069683;28;20336;-83
2023/02/28 06:56:12;;;;;;;10.10;6.60;;;0.20;69.40;;;;;;5080332;28;20644;-81
2023/02/28 06:58:39;;;;;;;9.20;7.43;;;0.20;69.90;;;;;;5081948;28;20238;-84
2023/02/28 07:01:05;;;;;;;7.30;6.60;;;0.30;69.30;;;;;;5079944;28;20326;-81
2023/02/28 07:03:31;;;;;;;6.80;6.10;;;0.30;69.00;;;;;;5074867;28;20180;-83
2023/02/28 07:05:56;;;;;;;7.23;6.50;;;0.30;68.80;;;;;;5081188;28;20830;-83
2023/02/28 07:08:26;;;;;;;6.27;5.67;;;0.30;68.60;;;;;;5080894;28;20183;-83
2023/02/28 07:10:56;;;;;;;7.50;5.53;;;0.40;68.60;;;;;;5078159;28;20657;-83
2023/02/28 07:13:22;;;;;;;6.37;5.67;;;0.50;68.50;;;;;;5069804;28;20561;-82
2023/02/28 07:16:05;;;;;;;7.27;5.70;;;0.50;67.90;;;;;;5079650;28;20951;-82
2023/02/28 07:18:31;;;;;;;7.17;6.47;;;0.50;68.00;;;;;;5069537;28;20186;-83
2023/02/28 07:20:57;;;;;;;7.37;5.50;;;0.50;68.70;;;;;;5082214;28;20248;-82
2023/02/28 07:23:24;;;;;;;6.53;5.93;;;0.40;67.80;;;;;;5076252;28;20211;-83
2023/02/28 07:25:50;;;;;;;8.10;5.93;;;0.50;67.90;;;;;;5080013;28;20710;-84
2023/02/28 07:28:16;;;;;;;6.30;5.70;;;0.50;68.40;;;;;;5080157;28;20183;-84
2023/02/28 07:30:42;;;;;;;6.83;5.87;;;0.50;67.60;;;;;;5071583;28;20207;-80
2023/02/28 07:33:08;;;;;;;7.23;5.90;;;0.50;67.40;;;;;;5079162;28;20822;-83
2023/02/28 07:35:33;;;;;;;6.33;5.70;;;0.50;67.10;;;;;;5080123;28;20183;-85
2023/02/28 07:38:00;;;;;;;6.40;5.80;;;0.50;67.10;;;;;;5078834;28;20191;-83
2023/02/28 07:40:26;;;;;;;6.87;5.77;;;0.60;67.20;;;;;;5075614;28;20225;-84
2023/02/28 07:42:52;;;;;;;7.00;5.93;;;0.60;67.10;;;;;;5073445;28;20225;-83
2023/02/28 07:45:18;;;;;;;7.60;5.43;;;0.70;66.50;;;;;;5075497;28;20657;-83
2023/02/28 07:47:44;;;;;;;6.60;5.87;;;0.80;66.10;;;;;;5075909;28;20213;-81
2023/02/28 07:50:12;;;;;;;6.03;5.43;;;0.80;65.90;;;;;;5074485;28;20214;-83
2023/02/28 07:52:39;;;;;;;6.30;5.70;;;0.90;65.10;;;;;;5073278;28;20195;-82
2023/02/28 07:55:07;;;;;;;9.37;5.67;;;0.90;65.70;;;;;;5068971;28;20187;-83
2023/02/28 07:57:33;;;;;;;5.50;5.00;;;0.80;65.40;;;;;;5078907;28;20192;-83
2023/02/28 07:59:58;;;;;;;7.77;6.53;;;0.80;65.50;;;;;;5079522;28;20252;-82
2023/02/28 08:02:24;;;;;;;10.07;6.00;;;0.90;65.50;;;;;;5075842;28;20187;-84
2023/02/28 08:04:50;;;;;;;6.63;5.80;;;0.80;65.50;;;;;;5087537;28;20182;-82
2023/02/28 08:07:16;;;;;;;7.73;5.90;;;0.80;65.30;;;;;;5081308;28;20225;-81
2023/02/28 08:09:43;;;;;;;7.13;5.67;;;0.70;65.70;;;;;;5073281;28;20254;-82
2023/02/28 08:12:09;;;;;;;8.67;6.20;;;0.80;66.00;;;;;;5085022;28;20641;-83
2023/02/28 08:14:35;;;;;;;6.40;5.53;;;0.80;65.60;;;;;;5092060;28;20680;-83
2023/02/28 08:17:01;;;;;;;6.83;5.87;;;0.70;65.90;;;;;;5092685;28;20684;-84
2023/02/28 08:19:27;;;;;;;7.03;6.13;;;0.70;66.40;;;;;;5093448;28;20700;-84
2023/02/28 08:21:54;;;;;;;7.33;5.90;;;0.80;65.70;;;;;;5088484;28;20187;-85
2023/02/28 08:24:19;;;;;;;8.80;6.60;;;0.90;65.20;;;;;;5091356;28;20195;-84
2023/02/28 08:26:45;;;;;;;7.03;6.33;;;1.00;64.70;;;;;;5090574;28;20287;-85
2023/02/28 08:29:11;;;;;;;8.07;6.87;;;1.00;64.20;;;;;;5076127;28;20545;-84
2023/02/28 08:31:36;;;;;;;9.83;6.67;;;1.10;64.90;;;;;;5077360;28;20192;-82
2023/02/28 08:34:11;;;;;;;7.17;6.47;;;1.10;64.10;;;;;;5078257;28;20199;-83
2023/02/28 08:36:37;;;;;;;7.23;6.27;;;1.20;64.00;;;;;;5076797;28;20202;-81
2023/02/28 08:39:04;;;;;;;7.10;6.40;;;1.30;63.30;;;;;;5073710;28;20205;-83
2023/02/28 08:41:29;;;;;;;7.70;6.40;;;1.30;63.10;;;;;;5082988;28;20230;-84
2023/02/28 08:43:55;;;;;;;6.67;5.97;;;1.30;63.10;;;;;;5079647;28;20190;-84
2023/02/28 08:46:21;;;;;;;8.57;6.23;;;1.30;62.70;;;;;;5080551;28;20207;-82
2023/02/28 08:48:46;;;;;;;6.77;6.03;;;1.20;62.80;;;;;;5081925;28;20184;-83
2023/02/28 08:51:16;;;;;;;7.53;6.57;;;1.30;63.10;;;;;;5079674;28;20222;-83
2023/02/28 08:53:41;;;;;;;6.50;5.80;;;1.40;62.60;;;;;;5076657;28;20179;-85
2023/02/28 08:56:13;;;;;;;6.70;6.07;;;1.50;62.60;;;;;;5079436;28;20198;-84
2023/02/28 08:58:39;;;;;;;6.83;6.00;;;1.50;61.90;;;;;;5070739;28;20345;-83
2023/02/28 09:01:16;;;;;;;8.03;7.23;;;1.60;62.00;;;;;;5082635;28;20227;-84
2023/02/28 09:03:43;;;;;;;9.00;6.73;;;1.70;61.70;;;;;;5100799;28;20179;-84
2023/02/28 09:06:11;;;;;;;6.43;5.80;;;1.70;61.70;;;;;;5103026;28;20201;-85
2023/02/28 09:08:36;;;;;;;7.27;6.40;;;2.00;60.00;;;;;;5087302;28;20195;-81
2023/02/28 09:11:02;;;;;;;7.53;6.47;;;1.90;60.50;;;;;;5071657;28;20207;-84
2023/02/28 09:13:29;;;;;;;8.57;6.23;;;1.80;60.60;;;;;;5082059;28;20183;-83
2023/02/28 09:15:59;;;;;;;7.37;6.23;;;1.80;60.50;;;;;;5075819;28;20240;-83
2023/02/28 09:18:25;;;;;;;7.53;6.80;;;2.00;60.40;;;;;;5076063;28;20222;-83
2023/02/28 09:20:51;;;;;;;7.60;6.67;;;2.00;60.10;;;;;;5079802;28;20347;-84
2023/02/28 09:23:17;;;;;;;7.53;6.63;;;2.10;60.10;;;;;;5094646;28;20243;-81
2023/02/28 09:25:51;;;;;;;8.77;7.40;;;2.20;59.20;;;;;;5095452;28;20207;-84
2023/02/28 09:28:18;;;;;;;7.73;6.90;;;2.10;58.80;;;;;;5096442;28;20197;-82
2023/02/28 09:30:49;;;;;;;8.23;7.17;;;2.10;59.70;;;;;;5090718;28;20301;-83
2023/02/28 09:33:16;;;;;;;8.77;6.80;;;2.20;59.00;;;;;;5095739;28;20270;-82
2023/02/28 09:35:42;;;;;;;8.90;6.87;;;2.30;59.30;;;;;;5095530;28;20233;-82
2023/02/28 09:38:09;;;;;;;11.90;7.47;;;2.60;57.30;;;;;;5096586;28;20195;-84
2023/02/28 09:40:39;;;;;;;7.73;7.03;;;2.60;57.20;;;;;;5094771;28;20206;-85
2023/02/28 09:43:05;;;;;;;7.90;7.10;;;2.60;56.60;;;;;;5093855;28;20755;-84
2023/02/28 09:45:39;;;;;;;9.53;6.80;;;2.60;56.60;;;;;;5092164;28;20221;-82
2023/02/28 09:48:29;;;;;;;10.63;7.40;;;2.50;56.80;;;;;;5091017;28;20625;-81
2023/02/28 09:51:04;;;;;;;11.63;7.23;;;2.80;57.70;;;;;;5093431;28;20766;-83
2023/02/28 09:53:38;;;;;;;10.23;7.13;;;2.80;55.80;;;;;;5093191;28;20174;-83
2023/02/28 09:56:18;;;;;;;8.77;7.70;;;2.90;55.90;;;;;;5094151;28;20218;-84
2023/02/28 09:58:53;;;;;;;9.13;7.50;;;3.00;56.00;;;;;;5094682;28;20186;-84
2023/02/28 10:01:42;;;;;;;8.73;7.90;;;3.00;55.60;;;;;;5092325;28;20367;-83
2023/02/28 10:04:25;;;;;;;8.83;7.20;;;3.10;54.90;;;;;;5092758;28;20194;-82
2023/02/28 10:06:52;;;;;;;9.63;7.10;;;3.00;55.00;;;;;;5100176;23;20294;-87
2023/02/28 10:09:26;;;;;;;10.10;8.37;;;3.30;55.10;;;;;;5060120;28;20161;-87
2023/02/28 10:11:56;;;;;;;8.83;7.43;;;3.40;54.40;;;;;;5074642;28;20358;-88
2023/02/28 10:14:25;;;;;;;9.90;7.63;;;3.50;53.30;;;;;;5043871;28;20195;-87
2023/02/28 10:16:58;;;;;;;9.27;8.37;;;3.50;53.10;;;;;;5043682;28;20204;-89
2023/02/28 10:19:49;;;;;;;17.20;9.57;;;3.50;53.00;;;;;;5053438;28;20203;-87
2023/02/28 10:22:19;;;;;;;8.63;7.80;;;3.60;52.20;;;;;;5055206;28;20271;-86
2023/02/28 10:24:48;;;;;;;8.03;7.23;;;3.40;52.20;;;;;;5058859;28;20195;-87
2023/02/28 10:27:22;;;;;;;8.67;7.77;;;3.50;52.50;;;;;;5051168;28;20346;-88
2023/02/28 10:29:53;;;;;;;10.30;8.70;;;3.50;52.10;;;;;;5053911;28;20187;-88
2023/02/28 10:32:39;;;;;;;10.53;8.50;;;3.40;52.60;;;;;;5039727;28;20182;-89
2023/02/28 10:35:21;;;;;;;9.80;8.47;;;3.30;52.80;;;;;;5046952;28;20844;-89
2023/02/28 10:37:50;;;;;;;9.93;7.90;;;3.40;52.50;;;;;;5045644;28;20204;-88
2023/02/28 10:40:19;;;;;;;8.67;7.77;;;3.50;52.30;;;;;;5041560;28;20188;-88
2023/02/28 10:43:04;;;;;;;8.80;7.90;;;3.50;52.90;;;;;;5043589;28;20366;-88
2023/02/28 10:45:34;;;;;;;8.03;7.13;;;3.60;52.80;;;;;;5042011;28;20204;-88
2023/02/28 10:48:13;;;;;;;8.00;7.30;;;3.60;52.80;;;;;;5042847;28;20733;-87
2023/02/28 10:50:41;;;;;;;8.60;7.70;;;3.60;52.70;;;;;;5037959;28;20173;-90
2023/02/28 10:53:10;;;;;;;8.87;7.60;;;3.60;52.80;;;;;;5033529;28;20188;-88
2023/02/28 10:55:36;;;;;;;8.67;7.73;;;3.50;53.20;;;;;;5036819;28;20522;-88
2023/02/28 10:58:03;;;;;;;10.43;8.53;;;3.60;52.80;;;;;;5045052;28;20208;-90
2023/02/28 11:00:37;;;;;;;9.30;8.30;;;3.60;52.80;;;;;;5039272;28;20238;-88
2023/02/28 11:03:25;;;;;;;9.00;8.17;;;3.70;52.50;;;;;;5042218;28;20204;-88
2023/02/28 11:05:50;;;;;;;9.00;8.10;;;3.50;53.50;;;;;;5039741;28;20200;-87
2023/02/28 11:08:17;;;;;;;10.10;8.63;;;3.60;53.00;;;;;;5051829;28;20207;-91
2023/02/28 11:10:56;;;;;;;8.83;7.93;;;3.60;53.30;;;;;;5061117;28;20215;-88
2023/02/28 11:13:27;;;;;;;9.30;8.13;;;3.80;52.60;;;;;;5062694;28;20585;-88
2023/02/28 11:15:58;;;;;;;10.40;8.90;;;3.80;53.00;;;;;;5060485;28;20237;-87
2023/02/28 11:18:48;;;;;;;9.00;8.10;;;3.80;52.00;;;;;;5062159;28;20554;-88
2023/02/28 11:21:33;;;;;;;9.70;8.10;;;3.80;52.50;;;;;;5063151;28;20207;-90
2023/02/28 11:24:06;;;;;;;9.70;8.57;;;3.90;52.60;;;;;;5066795;28;20184;-87
2023/02/28 11:26:44;;;;;;;9.17;8.37;;;3.90;51.90;;;;;;5058066;28;20208;-89
2023/02/28 11:29:17;;;;;;;10.60;7.93;;;3.80;52.20;;;;;;5058214;28;20172;-86
2023/02/28 11:31:42;;;;;;;9.43;8.43;;;3.80;52.30;;;;;;5062662;28;20176;-90
2023/02/28 11:34:25;;;;;;;12.20;8.97;;;3.70;52.70;;;;;;5057976;28;20192;-89
2023/02/28 11:36:53;;;;;;;9.60;8.47;;;3.80;52.30;;;;;;5040185;28;20242;-89
2023/02/28 11:39:19;;;;;;;12.30;8.07;;;3.80;52.80;;;;;;5060077;28;20222;-86
2023/02/28 11:42:24;;;;;;;10.00;8.90;;;3.70;52.60;;;;;;5066030;28;20195;-91
2023/02/28 11:45:12;;;;;;;9.00;8.10;;;3.90;52.70;;;;;;5065013;28;20188;-88
2023/02/28 11:48:02;;;;;;;9.80;8.77;;;4.10;52.30;;;;;;5060433;28;20211;-88
2023/02/28 11:50:45;;;;;;;9.07;8.20;;;4.10;51.60;;;;;;5057250;28;20172;-86
2023/02/28 11:53:33;;;;;;;8.63;7.83;;;4.10;51.40;;;;;;5057526;28;20931;-87
2023/02/28 11:56:07;;;;;;;8.57;7.70;;;4.10;51.30;;;;;;5045526;28;20268;-90
2023/02/28 11:58:53;;;;;;;8.50;7.67;;;4.10;51.20;;;;;;5047156;28;20183;-87
2023/02/28 12:01:52;;;;;;;9.53;8.63;;;4.30;51.10;;;;;;5064292;28;20482;-90
2023/02/28 12:04:56;;;;;;;9.40;8.13;;;4.30;50.80;;;;;;5064403;28;20186;-87
2023/02/28 12:07:49;;;;;;;9.83;8.23;;;4.20;50.20;;;;;;5040016;28;20238;-88
2023/02/28 12:10:25;;;;;;;9.60;8.50;;;4.20;50.70;;;;;;5058013;28;20175;-87
2023/02/28 12:13:00;;;;;;;10.03;9.03;;;4.40;50.70;;;;;;5047525;28;20218;-87
2023/02/28 12:15:57;;;;;;;10.20;9.20;;;4.40;50.00;;;;;;5060945;28;20271;-87
2023/02/28 12:18:33;;;;;;;9.37;8.23;;;4.60;49.60;;;;;;5059095;28;20737;-87
2023/02/28 12:21:11;;;;;;;9.13;8.23;;;4.70;49.20;;;;;;5054975;28;20257;-87
2023/02/28 12:23:47;;;;;;;13.10;11.07;;;4.80;50.00;;;;;;5044814;28;20965;-88
2023/02/28 12:26:33;;;;;;;9.50;8.50;;;5.10;49.30;;;;;;5059737;28;20219;-86
2023/02/28 12:29:09;;;;;;;8.63;7.63;;;5.20;46.90;;;;;;5064332;28;20229;-86
2023/02/28 12:31:40;;;;;;;10.17;9.07;;;5.00;46.40;;;;;;5062863;28;20186;-89
2023/02/28 12:34:12;;;;;;;13.73;9.07;;;5.00;46.60;;;;;;5040369;28;20234;-88
2023/02/28 12:36:40;;;;;;;11.47;9.40;;;5.20;45.50;;;;;;5061811;28;20270;-88
2023/02/28 12:39:21;;;;;;;10.47;9.47;;;5.20;46.30;;;;;;5057907;28;20188;-86
2023/02/28 12:42:12;;;;;;;9.97;8.97;;;5.50;45.90;;;;;;5064012;28;20183;-85
2023/02/28 12:44:49;;;;;;;9.80;8.80;;;5.60;45.70;;;;;;5061961;28;20184;-85
2023/02/28 12:47:17;;;;;;;10.67;9.57;;;5.50;46.10;;;;;;5059208;28;20238;-86
2023/02/28 12:49:58;;;;;;;10.67;9.63;;;5.60;45.20;;;;;;5060781;28;20565;-85
2023/02/28 12:52:40;;;;;;;9.20;8.40;;;5.70;45.40;;;;;;5055898;28;20218;-86
2023/02/28 12:55:21;;;;;;;9.87;8.77;;;5.70;45.10;;;;;;5061391;28;20182;-86
2023/02/28 12:58:21;;;;;;;10.00;9.00;;;5.80;44.90;;;;;;5054568;28;20247;-88
2023/02/28 13:01:10;;;;;;;9.77;8.87;;;6.60;43.10;;;;;;5064920;28;20192;-88
2023/02/28 13:03:52;;;;;;;8.67;7.87;;;7.30;41.70;;;;;;5058466;28;20440;-90
2023/02/28 13:06:41;;;;;;;9.73;8.63;;;7.70;39.60;;;;;;5059414;28;20299;-88
2023/02/28 13:09:13;;;;;;;10.03;9.10;;;8.10;38.70;;;;;;5053344;28;20862;-88
2023/02/28 13:11:48;;;;;;;9.37;8.40;;;8.10;38.20;;;;;;5060314;28;20225;-87
2023/02/28 13:14:20;;;;;;;10.57;9.57;;;8.00;38.30;;;;;;5054377;28;20550;-86
2023/02/28 13:16:52;;;;;;;9.33;8.33;;;7.50;39.50;;;;;;5055902;28;20220;-88